Wylliesburg, Virginia
Current Conditions -  °F | °C
As of 7:55 AM on Wednesday 26 Nov 2014 (Local Time) from KCXE Reporting Station
Overcast Overcast  
Wind Chill: 41°   Ceiling: 700
Heat Index: 45°   Visibility: 1.5mi
Dew Point: 44°   Wind: 6mph
Humidity: 99%   Direction: 30°NNE
Pressure: 30"   Gusts: NA
Location:  36.86°N, 78.59°W
Report Text: KCXE 261255Z AUTO 03005KT 1 1/2SM OVC007 07/07 A3000 RMK AO1 P0013 T00700069
Loading
Personal Weather Stations






























Interactive Weather Map New forecast layout! Learn more

10-Day Weather Forecast

Advertisements
Track Severe Weather on mobile